Time,TemperatureF,DewpointF,PressureIn,WindDirection,WindDirectionDegrees,WindSpeedMPH,WindSpeedGustMPH,Humidity,HourlyPrecipIn,Conditions,Clouds,dailyrainin,SoftwareType,DateUTC
2013-11-11 00:01:00,33.5,27.0,30.22,SSW,203,1.1,2.5,77,0.00,,,0.00,WUHU216HW,2013-11-11 05:01:00,
2013-11-11 00:06:00,33.7,27.1,30.22,SSW,203,1.6,2.0,77,0.00,,,0.00,WUHU216HW,2013-11-11 05:06:00,
2013-11-11 00:11:00,33.8,27.3,30.22,SSW,203,1.8,2.7,77,0.00,,,0.00,WUHU216HW,2013-11-11 05:11:00,
2013-11-11 00:16:00,34.0,27.5,30.22,SSW,203,3.1,3.4,77,0.00,,,0.00,WUHU216HW,2013-11-11 05:16:00,
2013-11-11 00:21:00,34.2,27.6,30.22,SSW,203,1.8,4.0,77,0.00,,,0.00,WUHU216HW,2013-11-11 05:21:00,
2013-11-11 00:26:00,34.4,27.6,30.22,SW,225,2.5,4.0,76,0.00,,,0.00,WUHU216HW,2013-11-11 05:26:00,
2013-11-11 00:31:00,34.6,27.7,30.21,SW,225,1.6,3.6,76,0.00,,,0.00,WUHU216HW,2013-11-11 05:31:00,
2013-11-11 00:36:00,34.6,27.7,30.21,WSW,248,2.2,3.1,76,0.00,,,0.00,WUHU216HW,2013-11-11 05:36:00,
2013-11-11 00:41:00,34.7,27.9,30.21,SW,225,2.7,2.7,76,0.00,,,0.00,WUHU216HW,2013-11-11 05:41:00,
2013-11-11 00:46:00,34.9,28.1,30.20,SW,225,3.1,3.1,76,0.00,,,0.00,WUHU216HW,2013-11-11 05:46:00,
2013-11-11 00:51:00,34.9,28.1,30.20,SSW,203,2.2,3.1,76,0.00,,,0.00,WUHU216HW,2013-11-11 05:51:00,
2013-11-11 00:56:00,34.9,28.1,30.20,SW,225,2.0,3.1,76,0.00,,,0.00,WUHU216HW,2013-11-11 05:56:00,
2013-11-11 01:01:00,34.9,28.1,30.20,SW,225,1.1,3.1,76,0.00,,,0.00,WUHU216HW,2013-11-11 06:01:00,
2013-11-11 01:06:00,35.1,28.3,30.21,WSW,248,1.6,4.0,76,0.00,,,0.00,WUHU216HW,2013-11-11 06:06:00,
2013-11-11 01:11:00,35.1,28.3,30.21,SSW,203,1.3,4.0,76,0.00,,,0.00,WUHU216HW,2013-11-11 06:11:00,
2013-11-11 01:16:00,35.3,28.5,30.20,SSW,203,3.1,4.3,76,0.00,,,0.00,WUHU216HW,2013-11-11 06:16:00,
2013-11-11 01:21:00,35.3,28.7,30.20,SSW,203,3.4,4.3,77,0.00,,,0.00,WUHU216HW,2013-11-11 06:21:00,
2013-11-11 01:26:00,35.5,28.6,30.19,SSW,203,2.2,4.3,76,0.00,,,0.00,WUHU216HW,2013-11-11 06:26:00,
2013-11-11 01:31:00,35.5,28.6,30.19,South,180,1.6,2.9,76,0.00,,,0.00,WUHU216HW,2013-11-11 06:31:00,
2013-11-11 01:36:00,35.6,28.8,30.19,SSE,158,1.3,2.5,76,0.00,,,0.00,WUHU216HW,2013-11-11 06:36:00,
2013-11-11 01:41:00,35.6,28.8,30.19,SSE,158,1.6,2.5,76,0.00,,,0.00,WUHU216HW,2013-11-11 06:41:00,
2013-11-11 01:46:00,35.6,28.8,30.19,SSE,158,1.1,2.5,76,0.00,,,0.00,WUHU216HW,2013-11-11 06:46:00,
2013-11-11 01:51:00,35.6,28.8,30.19,SW,225,0.2,2.5,76,0.00,,,0.00,WUHU216HW,2013-11-11 06:51:00,
2013-11-11 01:56:00,35.6,28.8,30.19,SSW,203,1.1,2.2,76,0.00,,,0.00,WUHU216HW,2013-11-11 06:56:00,
2013-11-11 02:01:00,35.6,29.1,30.19,SSE,158,2.7,2.7,77,0.00,,,0.00,WUHU216HW,2013-11-11 07:01:00,
2013-11-11 02:06:00,35.6,28.8,30.19,SW,225,1.8,2.7,76,0.00,,,0.00,WUHU216HW,2013-11-11 07:06:00,
2013-11-11 02:11:00,35.8,29.3,30.18,SSE,158,1.6,2.7,77,0.00,,,0.00,WUHU216HW,2013-11-11 07:11:00,
2013-11-11 02:16:00,35.8,29.0,30.18,SSW,203,1.1,3.4,76,0.00,,,0.00,WUHU216HW,2013-11-11 07:16:00,
2013-11-11 02:21:00,36.0,29.2,30.18,SW,225,1.1,3.4,76,0.00,,,0.00,WUHU216HW,2013-11-11 07:21:00,
2013-11-11 02:26:00,36.0,29.4,30.18,SW,225,2.5,2.7,77,0.00,,,0.00,WUHU216HW,2013-11-11 07:26:00,
2013-11-11 02:31:00,36.0,29.4,30.17,WSW,248,2.5,3.1,77,0.00,,,0.00,WUHU216HW,2013-11-11 07:31:00,
2013-11-11 02:36:00,36.2,29.6,30.17,South,180,2.2,4.0,77,0.00,,,0.00,WUHU216HW,2013-11-11 07:36:00,
2013-11-11 02:41:00,36.4,30.2,30.16,South,180,4.9,4.9,78,0.00,,,0.00,WUHU216HW,2013-11-11 07:41:00,
2013-11-11 02:46:00,36.5,30.3,30.16,SSW,203,4.0,4.9,78,0.00,,,0.00,WUHU216HW,2013-11-11 07:46:00,
2013-11-11 02:51:00,36.7,30.5,30.15,SSW,203,3.1,5.4,78,0.00,,,0.00,WUHU216HW,2013-11-11 07:51:00,
2013-11-11 02:56:00,36.9,30.7,30.15,SW,225,5.6,5.6,78,0.00,,,0.00,WUHU216HW,2013-11-11 07:56:00,
2013-11-11 03:01:00,37.1,30.9,30.15,SSW,203,4.0,5.6,78,0.00,,,0.00,WUHU216HW,2013-11-11 08:01:00,
2013-11-11 03:06:00,37.1,30.5,30.15,SW,225,4.7,5.6,77,0.00,,,0.00,WUHU216HW,2013-11-11 08:06:00,
2013-11-11 03:11:00,37.3,30.7,30.15,SW,225,3.4,4.7,77,0.00,,,0.00,WUHU216HW,2013-11-11 08:11:00,
2013-11-11 03:16:00,37.4,30.9,30.15,SW,225,3.8,4.7,77,0.00,,,0.00,WUHU216HW,2013-11-11 08:16:00,
2013-11-11 03:21:00,37.6,31.1,30.15,SSW,203,3.4,4.7,77,0.00,,,0.00,WUHU216HW,2013-11-11 08:21:00,
2013-11-11 03:26:00,37.6,30.8,30.15,SW,225,1.3,4.7,76,0.00,,,0.00,WUHU216HW,2013-11-11 08:26:00,
2013-11-11 03:31:00,37.8,30.9,30.15,SW,225,3.6,4.3,76,0.00,,,0.00,WUHU216HW,2013-11-11 08:31:00,
2013-11-11 03:36:00,37.8,30.9,30.14,SW,225,1.3,4.3,76,0.00,,,0.00,WUHU216HW,2013-11-11 08:36:00,
2013-11-11 03:41:00,37.8,30.9,30.14,SSW,203,2.9,4.5,76,0.00,,,0.00,WUHU216HW,2013-11-11 08:41:00,
2013-11-11 03:46:00,37.8,30.9,30.14,SW,225,3.1,4.5,76,0.00,,,0.00,WUHU216HW,2013-11-11 08:46:00,
2013-11-11 03:51:00,37.8,30.9,30.14,SSW,203,4.0,4.0,76,0.00,,,0.00,WUHU216HW,2013-11-11 08:51:00,
2013-11-11 03:56:00,38.0,31.1,30.13,SSW,203,4.3,7.4,76,0.00,,,0.00,WUHU216HW,2013-11-11 08:56:00,
2013-11-11 04:01:00,38.2,31.2,30.13,SW,225,3.6,7.4,76,0.00,,,0.00,WUHU216HW,2013-11-11 09:01:00,
2013-11-11 04:06:00,38.2,31.6,30.12,SSW,203,3.4,4.7,77,0.00,,,0.00,WUHU216HW,2013-11-11 09:06:00,
2013-11-11 04:11:00,38.2,31.6,30.13,WSW,248,1.8,6.3,77,0.00,,,0.00,WUHU216HW,2013-11-11 09:11:00,
2013-11-11 04:16:00,38.3,31.8,30.13,SW,225,3.6,6.3,77,0.00,,,0.00,WUHU216HW,2013-11-11 09:16:00,
2013-11-11 04:21:00,38.5,32.0,30.12,SSW,203,5.1,7.6,77,0.00,,,0.00,WUHU216HW,2013-11-11 09:21:00,
2013-11-11 04:26:00,38.5,32.0,30.12,SSW,203,4.0,7.6,77,0.00,,,0.00,WUHU216HW,2013-11-11 09:26:00,
2013-11-11 04:31:00,38.5,31.6,30.12,SW,225,2.9,7.2,76,0.00,,,0.00,WUHU216HW,2013-11-11 09:31:00,
2013-11-11 04:36:00,38.7,31.8,30.12,South,180,1.8,7.2,76,0.00,,,0.00,WUHU216HW,2013-11-11 09:36:00,
2013-11-11 04:41:00,38.9,32.0,30.11,South,180,2.5,4.9,76,0.00,,,0.00,WUHU216HW,2013-11-11 09:41:00,
2013-11-11 04:46:00,38.9,32.0,30.11,SSW,203,2.2,6.0,76,0.00,,,0.00,WUHU216HW,2013-11-11 09:46:00,
2013-11-11 04:51:00,38.9,32.0,30.11,SW,225,4.3,6.0,76,0.00,,,0.00,WUHU216HW,2013-11-11 09:51:00,
2013-11-11 04:56:00,38.9,32.0,30.11,SSW,203,4.3,8.1,76,0.00,,,0.00,WUHU216HW,2013-11-11 09:56:00,
2013-11-11 05:01:00,38.9,32.0,30.10,SW,225,1.8,8.1,76,0.00,,,0.00,WUHU216HW,2013-11-11 10:01:00,
2013-11-11 05:06:00,38.9,31.6,30.11,SSW,203,2.5,4.3,75,0.00,,,0.00,WUHU216HW,2013-11-11 10:06:00,
2013-11-11 05:11:00,38.9,32.0,30.11,SSE,158,3.6,4.0,76,0.00,,,0.00,WUHU216HW,2013-11-11 10:11:00,
2013-11-11 05:16:00,38.9,32.0,30.10,SSW,203,3.4,4.5,76,0.00,,,0.00,WUHU216HW,2013-11-11 10:16:00,
2013-11-11 05:21:00,38.7,31.8,30.10,South,180,2.5,5.6,76,0.00,,,0.00,WUHU216HW,2013-11-11 10:21:00,
2013-11-11 05:26:00,38.7,31.8,30.10,South,180,1.8,5.6,76,0.00,,,0.00,WUHU216HW,2013-11-11 10:26:00,
2013-11-11 05:31:00,38.5,31.6,30.10,SSE,158,5.1,5.4,76,0.00,,,0.00,WUHU216HW,2013-11-11 10:31:00,
2013-11-11 05:36:00,38.5,31.6,30.10,SSW,203,2.0,5.4,76,0.00,,,0.00,WUHU216HW,2013-11-11 10:36:00,
2013-11-11 05:41:00,38.5,32.0,30.10,SW,225,4.0,5.4,77,0.00,,,0.00,WUHU216HW,2013-11-11 10:41:00,
2013-11-11 05:46:00,38.5,32.0,30.10,SSW,203,3.8,4.7,77,0.00,,,0.00,WUHU216HW,2013-11-11 10:46:00,
2013-11-11 05:51:00,38.5,32.0,30.09,SSW,203,2.5,4.7,77,0.00,,,0.00,WUHU216HW,2013-11-11 10:51:00,
2013-11-11 05:56:00,38.5,32.0,30.08,SSE,158,4.7,6.0,77,0.00,,,0.00,WUHU216HW,2013-11-11 10:56:00,
2013-11-11 06:01:00,38.5,32.0,30.09,SSW,203,3.4,6.0,77,0.00,,,0.00,WUHU216HW,2013-11-11 11:01:00,
2013-11-11 06:06:00,38.5,32.0,30.08,SSW,203,2.2,5.1,77,0.00,,,0.00,WUHU216HW,2013-11-11 11:06:00,
2013-11-11 06:11:00,38.5,32.0,30.07,WSW,248,3.6,5.4,77,0.00,,,0.00,WUHU216HW,2013-11-11 11:11:00,
2013-11-11 06:16:00,38.5,32.0,30.07,South,180,1.8,5.6,77,0.00,,,0.00,WUHU216HW,2013-11-11 11:16:00,
2013-11-11 06:21:00,38.7,32.1,30.08,SSW,203,2.5,5.6,77,0.00,,,0.00,WUHU216HW,2013-11-11 11:21:00,
2013-11-11 06:26:00,38.7,32.1,30.07,SSW,203,6.7,6.7,77,0.00,,,0.00,WUHU216HW,2013-11-11 11:26:00,
2013-11-11 06:31:00,38.7,31.8,30.07,SSW,203,7.6,7.6,76,0.00,,,0.00,WUHU216HW,2013-11-11 11:31:00,
2013-11-11 06:36:00,38.9,32.0,30.07,South,180,5.4,7.6,76,0.00,,,0.00,WUHU216HW,2013-11-11 11:36:00,
2013-11-11 06:41:00,38.9,32.3,30.06,SSW,203,5.6,7.6,77,0.00,,,0.00,WUHU216HW,2013-11-11 11:41:00,
2013-11-11 06:46:00,39.1,32.1,30.06,SSW,203,5.8,6.3,76,0.00,,,0.00,WUHU216HW,2013-11-11 11:46:00,
2013-11-11 06:51:00,39.1,32.1,30.06,SW,225,2.5,5.8,76,0.00,,,0.00,WUHU216HW,2013-11-11 11:51:00,
2013-11-11 06:56:00,39.1,32.1,30.07,SW,225,3.4,5.8,76,0.00,,,0.00,WUHU216HW,2013-11-11 11:56:00,
2013-11-11 07:01:00,39.2,32.3,30.07,WSW,248,3.1,4.9,76,0.00,,,0.00,WUHU216HW,2013-11-11 12:01:00,
2013-11-11 07:06:00,39.2,32.0,30.07,SW,225,3.4,4.9,75,0.00,,,0.00,WUHU216HW,2013-11-11 12:06:00,
2013-11-11 07:11:00,39.2,32.0,30.07,WSW,248,4.3,4.7,75,0.00,,,0.00,WUHU216HW,2013-11-11 12:11:00,
2013-11-11 07:16:00,39.4,32.1,30.07,SSW,203,5.4,5.8,75,0.00,,,0.00,WUHU216HW,2013-11-11 12:16:00,
2013-11-11 07:21:00,39.4,32.1,30.07,SSW,203,3.8,6.3,75,0.00,,,0.00,WUHU216HW,2013-11-11 12:21:00,
2013-11-11 07:26:00,39.6,32.3,30.07,SW,225,5.1,6.9,75,0.00,,,0.00,WUHU216HW,2013-11-11 12:26:00,
2013-11-11 07:31:00,39.6,32.3,30.06,SW,225,3.4,7.4,75,0.00,,,0.00,WUHU216HW,2013-11-11 12:31:00,
2013-11-11 07:36:00,39.6,32.3,30.07,SW,225,4.7,7.4,75,0.00,,,0.00,WUHU216HW,2013-11-11 12:36:00,
2013-11-11 07:41:00,39.8,32.5,30.07,SSW,203,6.3,6.3,75,0.00,,,0.00,WUHU216HW,2013-11-11 12:41:00,
2013-11-11 07:46:00,39.8,32.1,30.06,SSW,203,5.6,6.9,74,0.00,,,0.00,WUHU216HW,2013-11-11 12:46:00,
2013-11-11 07:51:00,39.8,32.1,30.06,SW,225,2.2,7.4,74,0.00,,,0.00,WUHU216HW,2013-11-11 12:51:00,
2013-11-11 07:56:00,40.0,32.3,30.06,SW,225,3.4,7.4,74,0.00,,,0.00,WUHU216HW,2013-11-11 12:56:00,
2013-11-11 08:01:00,40.0,32.3,30.06,SSW,203,5.4,8.1,74,0.00,,,0.00,WUHU216HW,2013-11-11 13:01:00,
2013-11-11 08:06:00,40.0,32.3,30.06,SSW,203,4.3,8.1,74,0.00,,,0.00,WUHU216HW,2013-11-11 13:06:00,
2013-11-11 08:11:00,40.0,32.3,30.06,SW,225,5.4,6.5,74,0.00,,,0.00,WUHU216HW,2013-11-11 13:11:00,
2013-11-11 08:16:00,40.1,32.5,30.06,SW,225,6.5,6.5,74,0.00,,,0.00,WUHU216HW,2013-11-11 13:16:00,
2013-11-11 08:21:00,40.1,32.5,30.06,SW,225,4.9,8.1,74,0.00,,,0.00,WUHU216HW,2013-11-11 13:21:00,
2013-11-11 08:26:00,40.3,32.7,30.07,West,270,5.4,8.1,74,0.00,,,0.00,WUHU216HW,2013-11-11 13:26:00,
2013-11-11 08:31:00,40.3,32.7,30.06,SW,225,3.6,7.4,74,0.00,,,0.00,WUHU216HW,2013-11-11 13:31:00,
2013-11-11 08:36:00,40.5,32.9,30.06,SW,225,5.1,5.4,74,0.00,,,0.00,WUHU216HW,2013-11-11 13:36:00,
2013-11-11 08:41:00,40.5,32.9,30.06,SW,225,3.4,6.7,74,0.00,,,0.00,WUHU216HW,2013-11-11 13:41:00,
2013-11-11 08:46:00,40.7,33.0,30.06,WSW,248,4.5,6.7,74,0.00,,,0.00,WUHU216HW,2013-11-11 13:46:00,
2013-11-11 08:51:00,40.7,33.0,30.06,SSW,203,4.0,6.3,74,0.00,,,0.00,WUHU216HW,2013-11-11 13:51:00,
2013-11-11 08:56:00,40.7,33.0,30.06,SW,225,3.4,6.3,74,0.00,,,0.00,WUHU216HW,2013-11-11 13:56:00,
2013-11-11 09:01:00,40.9,33.1,30.06,SW,225,6.7,7.4,74,0.00,,,0.00,WUHU216HW,2013-11-11 14:01:00,
2013-11-11 09:06:00,40.9,33.1,30.05,SSW,203,4.3,7.6,74,0.00,,,0.00,WUHU216HW,2013-11-11 14:06:00,
2013-11-11 09:11:00,41.0,33.3,30.05,SW,225,4.9,7.8,74,0.00,,,0.00,WUHU216HW,2013-11-11 14:11:00,
2013-11-11 09:16:00,41.2,33.5,30.05,SW,225,2.5,7.8,74,0.00,,,0.00,WUHU216HW,2013-11-11 14:16:00,
2013-11-11 09:21:00,41.2,33.2,30.05,SSW,203,3.4,6.5,73,0.00,,,0.00,WUHU216HW,2013-11-11 14:21:00,
2013-11-11 09:26:00,41.4,33.4,30.05,WSW,248,3.8,6.5,73,0.00,,,0.00,WUHU216HW,2013-11-11 14:26:00,
2013-11-11 09:31:00,41.4,33.4,30.05,WSW,248,3.6,5.4,73,0.00,,,0.00,WUHU216HW,2013-11-11 14:31:00,
2013-11-11 09:36:00,41.4,33.4,30.05,SW,225,4.9,5.4,73,0.00,,,0.00,WUHU216HW,2013-11-11 14:36:00,
2013-11-11 09:41:00,41.6,33.6,30.05,SW,225,4.0,5.1,73,0.00,,,0.00,WUHU216HW,2013-11-11 14:41:00,
2013-11-11 09:46:00,41.8,33.8,30.05,SW,225,4.0,5.1,73,0.00,,,0.00,WUHU216HW,2013-11-11 14:46:00,
2013-11-11 09:51:00,41.8,33.8,30.05,SW,225,3.8,5.4,73,0.00,,,0.00,WUHU216HW,2013-11-11 14:51:00,
2013-11-11 09:56:00,41.8,33.4,30.05,South,180,4.7,6.0,72,0.00,,,0.00,WUHU216HW,2013-11-11 14:56:00,
2013-11-11 10:01:00,41.9,33.9,30.05,WSW,248,5.1,6.0,73,0.00,,,0.00,WUHU216HW,2013-11-11 15:01:00,
2013-11-11 10:06:00,41.9,33.6,30.06,WSW,248,4.7,6.3,72,0.00,,,0.00,WUHU216HW,2013-11-11 15:06:00,
2013-11-11 10:11:00,42.1,33.8,30.06,WSW,248,2.5,6.3,72,0.00,,,0.00,WUHU216HW,2013-11-11 15:11:00,
2013-11-11 10:16:00,42.1,33.8,30.06,SW,225,3.6,5.4,72,0.00,,,0.00,WUHU216HW,2013-11-11 15:16:00,
2013-11-11 10:20:00,42.1,33.8,30.05,SW,225,5.6,6.3,72,0.00,,,0.00,WUHU216HW,2013-11-11 15:20:00,
2013-11-11 10:25:00,42.3,33.9,30.05,SW,225,2.0,6.9,72,0.00,,,0.00,WUHU216HW,2013-11-11 15:25:00,
2013-11-11 10:30:00,42.3,33.9,30.05,WSW,248,2.0,6.9,72,0.00,,,0.00,WUHU216HW,2013-11-11 15:30:00,
2013-11-11 10:35:00,42.3,34.3,30.05,WSW,248,1.8,4.0,73,0.00,,,0.00,WUHU216HW,2013-11-11 15:35:00,
2013-11-11 10:40:00,42.5,34.5,30.05,WSW,248,5.1,5.1,73,0.00,,,0.00,WUHU216HW,2013-11-11 15:40:00,
2013-11-11 10:45:00,42.3,34.3,30.05,WSW,248,3.1,6.0,73,0.00,,,0.00,WUHU216HW,2013-11-11 15:45:00,
2013-11-11 10:50:00,42.3,34.3,30.05,West,270,5.4,6.0,73,0.00,,,0.00,WUHU216HW,2013-11-11 15:50:00,
2013-11-11 10:55:00,42.5,34.7,30.05,WSW,248,4.0,8.1,74,0.00,,,0.00,WUHU216HW,2013-11-11 15:55:00,
2013-11-11 11:01:00,42.5,34.7,30.04,West,270,3.4,8.1,74,0.01,,,0.01,WUHU216HW,2013-11-11 16:01:00,
2013-11-11 11:06:00,42.5,34.7,30.05,WNW,293,1.3,5.4,74,0.01,,,0.01,WUHU216HW,2013-11-11 16:06:00,
2013-11-11 11:11:00,42.5,34.7,30.04,SW,225,2.9,5.4,74,0.01,,,0.01,WUHU216HW,2013-11-11 16:11:00,
2013-11-11 11:16:00,42.5,34.7,30.04,WSW,248,4.5,4.9,74,0.01,,,0.01,WUHU216HW,2013-11-11 16:16:00,
2013-11-11 11:21:00,42.5,34.7,30.04,WSW,248,4.7,5.6,74,0.01,,,0.01,WUHU216HW,2013-11-11 16:21:00,
2013-11-11 11:26:00,42.7,34.9,30.04,West,270,3.4,7.4,74,0.01,,,0.01,WUHU216HW,2013-11-11 16:26:00,
2013-11-11 11:31:00,42.7,34.9,30.04,SW,225,3.1,7.4,74,0.01,,,0.01,WUHU216HW,2013-11-11 16:31:00,
2013-11-11 11:36:00,42.8,35.1,30.04,WSW,248,3.4,7.6,74,0.01,,,0.01,WUHU216HW,2013-11-11 16:36:00,
2013-11-11 11:41:00,42.8,35.1,30.03,WSW,248,5.4,7.6,74,0.01,,,0.01,WUHU216HW,2013-11-11 16:41:00,
2013-11-11 11:45:00,42.8,35.1,30.03,WSW,248,1.6,7.6,74,0.01,,,0.01,WUHU216HW,2013-11-11 16:45:00,
2013-11-11 11:50:00,42.8,35.1,30.03,WSW,248,4.0,5.4,74,0.01,,,0.01,WUHU216HW,2013-11-11 16:50:00,
2013-11-11 11:55:00,43.2,35.8,30.03,SW,225,7.2,7.6,75,0.00,,,0.01,WUHU216HW,2013-11-11 16:55:00,
2013-11-11 12:00:00,43.2,35.8,30.03,SSW,203,4.3,7.6,75,0.00,,,0.01,WUHU216HW,2013-11-11 17:00:00,
2013-11-11 12:05:00,43.2,35.8,30.03,SW,225,2.9,7.6,75,0.00,,,0.01,WUHU216HW,2013-11-11 17:05:00,
2013-11-11 12:10:00,43.2,36.1,30.03,WSW,248,6.5,9.4,76,0.00,,,0.01,WUHU216HW,2013-11-11 17:10:00,
2013-11-11 12:15:00,43.2,36.1,30.03,WNW,293,3.4,9.4,76,0.00,,,0.01,WUHU216HW,2013-11-11 17:15:00,
2013-11-11 12:20:00,43.0,36.3,30.03,West,270,4.3,6.9,77,0.00,,,0.01,WUHU216HW,2013-11-11 17:20:00,
2013-11-11 12:25:00,42.8,36.1,30.03,West,270,1.8,6.9,77,0.01,,,0.03,WUHU216HW,2013-11-11 17:25:00,
2013-11-11 12:30:00,42.8,36.5,30.03,WNW,293,6.3,6.9,78,0.01,,,0.03,WUHU216HW,2013-11-11 17:30:00,
2013-11-11 12:35:00,42.5,36.1,30.03,WNW,293,3.8,7.8,78,0.01,,,0.03,WUHU216HW,2013-11-11 17:35:00,
2013-11-11 12:40:00,42.5,36.4,30.03,WNW,293,7.2,7.8,79,0.01,,,0.03,WUHU216HW,2013-11-11 17:40:00,
2013-11-11 12:45:00,42.3,36.2,30.03,West,270,4.0,7.2,79,0.01,,,0.03,WUHU216HW,2013-11-11 17:45:00,
2013-11-11 12:50:00,42.1,36.4,30.03,WSW,248,3.8,7.2,80,0.01,,,0.03,WUHU216HW,2013-11-11 17:50:00,
2013-11-11 12:55:00,42.1,36.6,30.02,NW,315,3.8,6.9,81,0.02,,,0.03,WUHU216HW,2013-11-11 17:55:00,
2013-11-11 13:00:00,41.9,36.5,30.03,West,270,4.0,9.2,81,0.02,,,0.03,WUHU216HW,2013-11-11 18:00:00,
2013-11-11 13:05:00,41.8,36.3,30.03,WNW,293,3.8,9.2,81,0.03,,,0.05,WUHU216HW,2013-11-11 18:05:00,
2013-11-11 13:10:00,41.6,36.1,30.02,West,270,2.5,7.2,81,0.03,,,0.05,WUHU216HW,2013-11-11 18:10:00,
2013-11-11 13:15:00,41.6,36.5,30.03,WSW,248,6.0,6.0,82,0.03,,,0.05,WUHU216HW,2013-11-11 18:15:00,
2013-11-11 13:20:00,41.6,36.5,30.02,West,270,5.4,7.2,82,0.02,,,0.05,WUHU216HW,2013-11-11 18:20:00,
2013-11-11 13:25:00,41.4,36.5,30.02,WNW,293,2.5,7.2,83,0.03,,,0.05,WUHU216HW,2013-11-11 18:25:00,
2013-11-11 13:30:00,41.4,36.3,30.02,WSW,248,1.1,5.4,82,0.03,,,0.05,WUHU216HW,2013-11-11 18:30:00,
2013-11-11 13:35:00,41.4,36.3,30.02,WSW,248,1.8,4.9,82,0.03,,,0.05,WUHU216HW,2013-11-11 18:35:00,
2013-11-11 13:40:00,41.4,36.3,30.03,NW,315,4.7,5.1,82,0.03,,,0.05,WUHU216HW,2013-11-11 18:40:00,
2013-11-11 13:45:00,41.4,36.3,30.03,WNW,293,1.8,5.1,82,0.04,,,0.07,WUHU216HW,2013-11-11 18:45:00,
2013-11-11 13:50:00,41.4,36.3,30.03,NW,315,2.5,5.1,82,0.04,,,0.07,WUHU216HW,2013-11-11 18:50:00,
2013-11-11 13:55:00,41.4,36.3,30.03,NNW,338,4.9,4.9,82,0.03,,,0.07,WUHU216HW,2013-11-11 18:55:00,
2013-11-11 14:00:00,41.4,36.5,30.03,West,270,4.0,4.9,83,0.03,,,0.08,WUHU216HW,2013-11-11 19:00:00,
2013-11-11 14:05:00,41.4,36.5,30.03,WNW,293,1.1,4.9,83,0.03,,,0.08,WUHU216HW,2013-11-11 19:05:00,
2013-11-11 14:10:00,41.2,36.7,30.03,WNW,293,9.8,9.8,84,0.04,,,0.08,WUHU216HW,2013-11-11 19:10:00,
2013-11-11 14:15:00,41.0,36.6,30.03,NW,315,2.5,9.8,84,0.04,,,0.08,WUHU216HW,2013-11-11 19:15:00,
2013-11-11 14:20:00,40.9,36.4,30.04,NNW,338,6.7,9.8,84,0.04,,,0.10,WUHU216HW,2013-11-11 19:20:00,
2013-11-11 14:25:00,40.7,36.2,30.04,WNW,293,7.8,11.9,84,0.05,,,0.10,WUHU216HW,2013-11-11 19:25:00,
2013-11-11 14:30:00,40.1,35.4,30.04,WNW,293,5.6,11.9,83,0.05,,,0.10,WUHU216HW,2013-11-11 19:30:00,
2013-11-11 14:35:00,40.0,35.5,30.04,NW,315,3.4,8.1,84,0.06,,,0.12,WUHU216HW,2013-11-11 19:35:00,
2013-11-11 14:40:00,39.8,35.3,30.04,WNW,293,1.6,7.4,84,0.05,,,0.12,WUHU216HW,2013-11-11 19:40:00,
2013-11-11 14:45:00,39.6,35.2,30.04,NW,315,8.1,9.8,84,0.06,,,0.12,WUHU216HW,2013-11-11 19:45:00,
2013-11-11 14:50:00,39.2,34.8,30.05,WNW,293,6.9,9.8,84,0.06,,,0.12,WUHU216HW,2013-11-11 19:50:00,
2013-11-11 14:55:00,38.9,34.5,30.05,WNW,293,4.9,8.7,84,0.07,,,0.14,WUHU216HW,2013-11-11 19:55:00,
2013-11-11 15:00:00,38.5,34.1,30.05,NW,315,4.9,8.7,84,0.07,,,0.15,WUHU216HW,2013-11-11 20:00:00,
2013-11-11 15:05:00,38.3,33.9,30.05,WNW,293,7.6,7.6,84,0.07,,,0.15,WUHU216HW,2013-11-11 20:05:00,
2013-11-11 15:10:00,38.0,33.6,30.05,NW,315,2.7,7.6,84,0.06,,,0.15,WUHU216HW,2013-11-11 20:10:00,
2013-11-11 15:15:00,37.8,33.4,30.05,NNW,338,6.7,7.6,84,0.07,,,0.16,WUHU216HW,2013-11-11 20:15:00,
2013-11-11 15:20:00,37.6,33.2,30.06,North,0,4.9,9.8,84,0.06,,,0.16,WUHU216HW,2013-11-11 20:20:00,
2013-11-11 15:25:00,37.6,33.2,30.06,West,270,3.4,9.8,84,0.05,,,0.16,WUHU216HW,2013-11-11 20:25:00,
2013-11-11 15:30:00,37.4,33.0,30.06,WNW,293,3.4,4.9,84,0.05,,,0.16,WUHU216HW,2013-11-11 20:30:00,
2013-11-11 15:35:00,37.4,33.0,30.07,West,270,4.7,8.3,84,0.05,,,0.17,WUHU216HW,2013-11-11 20:35:00,
2013-11-11 15:40:00,37.1,32.9,30.07,NW,315,5.4,12.5,85,0.04,,,0.17,WUHU216HW,2013-11-11 20:40:00,
2013-11-11 15:45:00,36.7,32.6,30.07,NNW,338,4.7,12.5,85,0.04,,,0.17,WUHU216HW,2013-11-11 20:45:00,
2013-11-11 15:50:00,36.4,32.2,30.08,WNW,293,3.8,11.0,85,0.04,,,0.17,WUHU216HW,2013-11-11 20:50:00,
2013-11-11 15:55:00,36.0,31.9,30.08,WNW,293,5.8,12.8,85,0.03,,,0.17,WUHU216HW,2013-11-11 20:55:00,
2013-11-11 16:00:00,35.6,31.5,30.08,NNE,23,6.9,12.8,85,0.03,,,0.18,WUHU216HW,2013-11-11 21:00:00,
2013-11-11 16:05:00,35.3,31.1,30.09,WNW,293,4.5,11.4,85,0.03,,,0.18,WUHU216HW,2013-11-11 21:05:00,
2013-11-11 16:10:00,34.7,30.6,30.09,North,0,7.6,11.4,85,0.03,,,0.18,WUHU216HW,2013-11-11 21:10:00,
2013-11-11 16:15:00,34.2,30.3,30.10,WNW,293,7.6,9.8,86,0.02,,,0.18,WUHU216HW,2013-11-11 21:15:00,
2013-11-11 16:20:00,33.8,30.0,30.10,North,0,6.9,9.8,86,0.02,,,0.18,WUHU216HW,2013-11-11 21:20:00,
2013-11-11 16:25:00,33.7,29.8,30.10,North,0,3.4,8.3,86,0.02,,,0.18,WUHU216HW,2013-11-11 21:25:00,
2013-11-11 16:30:00,33.5,29.7,30.11,NNW,338,4.0,8.3,86,0.01,,,0.18,WUHU216HW,2013-11-11 21:30:00,
2013-11-11 16:35:00,33.5,29.7,30.12,ENE,68,5.8,7.6,86,0.01,,,0.18,WUHU216HW,2013-11-11 21:35:00,
2013-11-11 16:40:00,33.1,29.3,30.12,NW,315,6.0,12.1,86,0.01,,,0.18,WUHU216HW,2013-11-11 21:40:00,
2013-11-11 16:45:00,32.8,29.0,30.12,WNW,293,7.2,12.1,86,0.01,,,0.18,WUHU216HW,2013-11-11 21:45:00,
2013-11-11 16:50:00,32.4,28.7,30.12,North,0,3.8,11.2,86,0.01,,,0.18,WUHU216HW,2013-11-11 21:50:00,
2013-11-11 16:55:00,32.2,28.5,30.13,North,0,5.6,11.2,86,0.01,,,0.18,WUHU216HW,2013-11-11 21:55:00,
2013-11-11 17:00:00,32.2,28.5,30.13,North,0,1.3,10.7,86,0.00,,,0.18,WUHU216HW,2013-11-11 22:00:00,
2013-11-11 17:05:00,32.0,28.6,30.13,North,0,9.2,9.2,87,0.00,,,0.18,WUHU216HW,2013-11-11 22:05:00,
2013-11-11 17:10:00,32.0,28.6,30.13,North,0,3.6,11.2,87,0.00,,,0.18,WUHU216HW,2013-11-11 22:10:00,
2013-11-11 17:16:00,31.9,28.8,30.13,North,0,5.8,11.2,88,0.00,,,0.18,WUHU216HW,2013-11-11 22:16:00,
2013-11-11 17:21:00,31.9,28.8,30.13,North,0,5.8,9.4,88,0.00,,,0.18,WUHU216HW,2013-11-11 22:21:00,
2013-11-11 17:26:00,31.9,28.8,30.14,North,0,2.5,10.5,88,0.00,,,0.18,WUHU216HW,2013-11-11 22:26:00,
2013-11-11 17:31:00,31.7,28.6,30.14,North,0,7.4,10.5,88,0.00,,,0.18,WUHU216HW,2013-11-11 22:31:00,
2013-11-11 17:36:00,31.5,28.1,30.14,North,0,4.0,11.2,87,0.00,,,0.18,WUHU216HW,2013-11-11 22:36:00,
2013-11-11 17:41:00,31.3,27.9,30.14,North,0,9.2,13.4,87,0.00,,,0.18,WUHU216HW,2013-11-11 22:41:00,
2013-11-11 17:45:00,31.0,27.3,30.15,North,0,3.8,13.4,86,0.00,,,0.18,WUHU216HW,2013-11-11 22:45:00,
2013-11-11 17:50:00,30.8,27.4,30.15,North,0,6.5,10.5,87,0.00,,,0.18,WUHU216HW,2013-11-11 22:50:00,
2013-11-11 17:55:00,30.6,27.2,30.16,North,0,6.9,8.5,87,0.00,,,0.18,WUHU216HW,2013-11-11 22:55:00,
2013-11-11 18:00:00,30.6,27.2,30.16,North,0,3.1,8.1,87,0.00,,,0.18,WUHU216HW,2013-11-11 23:00:00,
2013-11-11 18:05:00,30.4,27.0,30.17,North,0,3.4,11.6,87,0.00,,,0.18,WUHU216HW,2013-11-11 23:05:00,
2013-11-11 18:10:00,30.2,26.8,30.17,North,0,3.4,11.6,87,0.00,,,0.18,WUHU216HW,2013-11-11 23:10:00,
2013-11-11 18:15:00,30.2,26.8,30.17,North,0,1.8,8.9,87,0.00,,,0.18,WUHU216HW,2013-11-11 23:15:00,
2013-11-11 18:20:00,30.2,26.8,30.17,North,0,2.9,8.9,87,0.00,,,0.18,WUHU216HW,2013-11-11 23:20:00,
2013-11-11 18:25:00,30.1,26.4,30.17,North,0,3.6,9.2,86,0.00,,,0.18,WUHU216HW,2013-11-11 23:25:00,
2013-11-11 18:30:00,30.1,26.4,30.18,North,0,4.5,9.2,86,0.00,,,0.18,WUHU216HW,2013-11-11 23:30:00,
2013-11-11 18:35:00,29.9,26.2,30.18,North,0,3.4,8.7,86,0.00,,,0.18,WUHU216HW,2013-11-11 23:35:00,
2013-11-11 18:40:00,29.9,26.2,30.18,North,0,8.7,10.5,86,0.00,,,0.18,WUHU216HW,2013-11-11 23:40:00,
2013-11-11 18:45:00,29.7,26.0,30.18,North,0,2.5,10.5,86,0.00,,,0.18,WUHU216HW,2013-11-11 23:45:00,
2013-11-11 18:50:00,29.7,26.0,30.18,North,0,1.6,8.7,86,0.00,,,0.18,WUHU216HW,2013-11-11 23:50:00,
2013-11-11 18:55:00,29.5,25.8,30.18,North,0,2.9,7.8,86,0.00,,,0.18,WUHU216HW,2013-11-11 23:55:00,
2013-11-11 19:00:00,29.5,25.8,30.18,North,0,1.6,7.8,86,0.00,,,0.18,WUHU216HW,2013-11-12 00:00:00,
2013-11-11 19:05:00,29.5,25.8,30.19,North,0,2.9,8.3,86,0.00,,,0.18,WUHU216HW,2013-11-12 00:05:00,
2013-11-11 19:10:00,29.5,25.8,30.19,North,0,4.7,8.3,86,0.00,,,0.18,WUHU216HW,2013-11-12 00:10:00,
2013-11-11 19:15:00,29.5,25.8,30.19,North,0,6.5,6.5,86,0.00,,,0.18,WUHU216HW,2013-11-12 00:15:00,
2013-11-11 19:20:00,29.5,25.8,30.19,North,0,6.3,6.9,86,0.00,,,0.18,WUHU216HW,2013-11-12 00:20:00,
2013-11-11 19:25:00,29.5,25.8,30.20,North,0,5.4,6.9,86,0.00,,,0.18,WUHU216HW,2013-11-12 00:25:00,
2013-11-11 19:30:00,29.5,25.8,30.20,North,0,5.6,7.2,86,0.00,,,0.18,WUHU216HW,2013-11-12 00:30:00,
2013-11-11 19:35:00,29.5,25.6,30.20,North,0,3.1,10.1,85,0.00,,,0.18,WUHU216HW,2013-11-12 00:35:00,
2013-11-11 19:40:00,29.5,25.6,30.20,North,0,3.1,10.1,85,0.00,,,0.18,WUHU216HW,2013-11-12 00:40:00,
2013-11-11 19:45:00,29.3,25.4,30.20,North,0,4.5,7.4,85,0.00,,,0.18,WUHU216HW,2013-11-12 00:45:00,
2013-11-11 19:50:00,29.5,25.6,30.20,North,0,8.7,8.9,85,0.00,,,0.18,WUHU216HW,2013-11-12 00:50:00,
2013-11-11 19:55:00,29.3,24.9,30.20,North,0,6.3,12.1,83,0.00,,,0.18,WUHU216HW,2013-11-12 00:55:00,
2013-11-11 20:00:00,29.3,24.9,30.20,North,0,5.4,12.1,83,0.00,,,0.18,WUHU216HW,2013-11-12 01:00:00,
2013-11-11 20:05:00,29.2,24.7,30.21,North,0,7.6,9.8,83,0.00,,,0.18,WUHU216HW,2013-11-12 01:05:00,
2013-11-11 20:10:00,29.2,24.7,30.21,North,0,4.9,9.2,83,0.00,,,0.18,WUHU216HW,2013-11-12 01:10:00,
2013-11-11 20:15:00,29.2,24.7,30.22,North,0,6.3,8.3,83,0.00,,,0.18,WUHU216HW,2013-11-12 01:15:00,
2013-11-11 20:20:00,29.2,24.3,30.22,North,0,2.7,7.6,82,0.00,,,0.18,WUHU216HW,2013-11-12 01:20:00,
2013-11-11 20:25:00,29.0,23.9,30.22,North,0,6.3,7.6,81,0.00,,,0.18,WUHU216HW,2013-11-12 01:25:00,
2013-11-11 20:30:00,28.8,23.7,30.22,North,0,7.4,8.5,81,0.00,,,0.18,WUHU216HW,2013-11-12 01:30:00,
2013-11-11 20:35:00,28.8,23.7,30.22,North,0,2.7,8.5,81,0.00,,,0.18,WUHU216HW,2013-11-12 01:35:00,
2013-11-11 20:40:00,28.6,23.2,30.22,North,0,4.0,9.2,80,0.00,,,0.18,WUHU216HW,2013-11-12 01:40:00,
2013-11-11 20:45:00,28.6,23.0,30.22,North,0,7.6,9.2,79,0.00,,,0.18,WUHU216HW,2013-11-12 01:45:00,
2013-11-11 20:50:00,28.6,23.0,30.23,North,0,4.7,8.3,79,0.00,,,0.18,WUHU216HW,2013-11-12 01:50:00,
2013-11-11 20:55:00,28.6,23.2,30.23,North,0,2.9,7.8,80,0.00,,,0.18,WUHU216HW,2013-11-12 01:55:00,
2013-11-11 21:00:00,28.4,23.0,30.23,North,0,4.3,6.9,80,0.00,,,0.18,WUHU216HW,2013-11-12 02:00:00,
2013-11-11 21:05:00,28.4,23.0,30.24,North,0,5.1,6.5,80,0.00,,,0.18,WUHU216HW,2013-11-12 02:05:00,
2013-11-11 21:10:00,28.4,23.0,30.24,North,0,5.6,9.4,80,0.00,,,0.18,WUHU216HW,2013-11-12 02:10:00,
2013-11-11 21:15:00,28.4,23.0,30.24,North,0,5.6,9.4,80,0.00,,,0.18,WUHU216HW,2013-11-12 02:15:00,
2013-11-11 21:20:00,28.3,22.9,30.24,North,0,5.1,6.9,80,0.00,,,0.18,WUHU216HW,2013-11-12 02:20:00,
2013-11-11 21:25:00,28.3,22.9,30.25,North,0,2.9,10.3,80,0.00,,,0.18,WUHU216HW,2013-11-12 02:25:00,
2013-11-11 21:30:00,28.3,22.9,30.25,North,0,4.0,10.3,80,0.00,,,0.18,WUHU216HW,2013-11-12 02:30:00,
2013-11-11 21:35:00,28.3,22.9,30.25,North,0,3.4,6.9,80,0.00,,,0.18,WUHU216HW,2013-11-12 02:35:00,
2013-11-11 21:40:00,28.1,22.7,30.25,North,0,2.5,9.4,80,0.00,,,0.18,WUHU216HW,2013-11-12 02:40:00,
2013-11-11 21:45:00,28.1,22.4,30.25,North,0,4.5,9.4,79,0.00,,,0.18,WUHU216HW,2013-11-12 02:45:00,
2013-11-11 21:50:00,28.1,22.4,30.26,North,0,1.1,6.9,79,0.00,,,0.18,WUHU216HW,2013-11-12 02:50:00,
2013-11-11 21:55:00,28.1,22.4,30.26,North,0,4.0,11.4,79,0.00,,,0.18,WUHU216HW,2013-11-12 02:55:00,
2013-11-11 22:00:00,28.1,22.4,30.26,North,0,5.1,11.4,79,0.00,,,0.18,WUHU216HW,2013-11-12 03:00:00,
2013-11-11 22:05:00,27.9,22.2,30.26,North,0,7.6,10.3,79,0.00,,,0.18,WUHU216HW,2013-11-12 03:05:00,
2013-11-11 22:10:00,27.9,22.2,30.27,North,0,6.0,7.6,79,0.00,,,0.18,WUHU216HW,2013-11-12 03:10:00,
2013-11-11 22:15:00,27.9,22.2,30.27,North,0,3.4,6.9,79,0.00,,,0.18,WUHU216HW,2013-11-12 03:15:00,
2013-11-11 22:20:00,27.7,22.3,30.27,North,0,3.4,6.0,80,0.00,,,0.18,WUHU216HW,2013-11-12 03:20:00,
2013-11-11 22:25:00,27.7,22.3,30.27,North,0,2.0,9.8,80,0.00,,,0.18,WUHU216HW,2013-11-12 03:25:00,
2013-11-11 22:30:00,27.7,22.3,30.27,North,0,2.9,9.8,80,0.00,,,0.18,WUHU216HW,2013-11-12 03:30:00,
2013-11-11 22:35:00,27.7,22.6,30.28,North,0,4.7,8.3,81,0.00,,,0.18,WUHU216HW,2013-11-12 03:35:00,
2013-11-11 22:40:00,27.7,22.6,30.28,North,0,6.0,8.3,81,0.00,,,0.18,WUHU216HW,2013-11-12 03:40:00,
2013-11-11 22:45:00,27.7,22.6,30.28,North,0,6.9,8.7,81,0.00,,,0.18,WUHU216HW,2013-11-12 03:45:00,
2013-11-11 22:50:00,27.7,22.6,30.28,North,0,6.0,8.7,81,0.00,,,0.18,WUHU216HW,2013-11-12 03:50:00,
2013-11-11 22:55:00,27.7,22.6,30.28,North,0,8.3,8.3,81,0.00,,,0.18,WUHU216HW,2013-11-12 03:55:00,
2013-11-11 23:00:00,27.7,22.6,30.29,North,0,7.8,11.4,81,0.00,,,0.18,WUHU216HW,2013-11-12 04:00:00,
2013-11-11 23:06:00,27.7,22.6,30.29,North,0,5.8,11.4,81,0.00,,,0.18,WUHU216HW,2013-11-12 04:06:00,
2013-11-11 23:11:00,27.7,22.3,30.29,North,0,7.6,10.5,80,0.00,,,0.18,WUHU216HW,2013-11-12 04:11:00,
2013-11-11 23:16:00,27.5,22.1,30.29,North,0,6.3,8.5,80,0.00,,,0.18,WUHU216HW,2013-11-12 04:16:00,
2013-11-11 23:21:00,27.5,22.1,30.29,North,0,4.0,8.7,80,0.00,,,0.18,WUHU216HW,2013-11-12 04:21:00,
2013-11-11 23:26:00,27.5,22.1,30.29,North,0,8.5,9.8,80,0.00,,,0.18,WUHU216HW,2013-11-12 04:26:00,
2013-11-11 23:31:00,27.4,22.0,30.29,North,0,7.6,11.2,80,0.00,,,0.18,WUHU216HW,2013-11-12 04:31:00,
2013-11-11 23:36:00,27.4,21.7,30.29,North,0,8.3,11.2,79,0.00,,,0.18,WUHU216HW,2013-11-12 04:36:00,
2013-11-11 23:41:00,27.4,21.7,30.29,North,0,5.4,10.7,79,0.00,,,0.18,WUHU216HW,2013-11-12 04:41:00,
2013-11-11 23:46:00,27.4,21.7,30.29,North,0,7.6,8.5,79,0.00,,,0.18,WUHU216HW,2013-11-12 04:46:00,
2013-11-11 23:51:00,27.4,21.7,30.29,North,0,4.5,10.5,79,0.00,,,0.18,WUHU216HW,2013-11-12 04:51:00,
2013-11-11 23:56:00,27.2,21.5,30.30,North,0,1.8,10.5,79,0.00,,,0.18,WUHU216HW,2013-11-12 04:56:00,